createdAt,value
2022-10-24T00:00:01.757Z,6.28
2022-10-24T00:02:36.373Z,6.75
2022-10-24T00:05:10.152Z,6.42
2022-10-24T00:07:43.959Z,5.15
2022-10-24T00:10:17.654Z,5.60
2022-10-24T00:12:52.055Z,6.28
2022-10-24T00:15:25.439Z,5.55
2022-10-24T00:17:58.738Z,4.97
2022-10-24T00:20:32.857Z,5.47
2022-10-24T00:23:06.582Z,5.65
2022-10-24T00:25:39.341Z,5.40
2022-10-24T00:28:13.180Z,5.58
2022-10-24T00:30:46.387Z,5.58
2022-10-24T00:33:19.109Z,5.97
2022-10-24T00:35:51.953Z,5.45
2022-10-24T00:38:25.694Z,5.28
2022-10-24T00:40:59.241Z,5.53
2022-10-24T00:43:31.843Z,5.72
2022-10-24T00:46:04.655Z,5.50
2022-10-24T00:48:50.607Z,5.60
2022-10-24T00:51:30.184Z,5.72
2022-10-24T00:54:08.965Z,4.72
2022-10-24T00:56:45.850Z,5.03
2022-10-24T00:59:19.995Z,5.85
2022-10-24T01:01:52.883Z,5.53
2022-10-24T01:04:26.692Z,5.40
2022-10-24T01:07:22.040Z,5.78
2022-10-24T01:10:19.864Z,5.50
2022-10-24T01:13:24.330Z,5.72
2022-10-24T01:16:14.857Z,5.58
2022-10-24T01:19:32.966Z,5.33
2022-10-24T01:22:18.563Z,5.12
2022-10-24T01:25:01.679Z,5.70
2022-10-24T01:28:00.567Z,5.87
2022-10-24T01:30:38.407Z,5.58
2022-10-24T01:33:18.982Z,6.53
2022-10-24T01:36:12.971Z,5.78
2022-10-24T01:38:55.867Z,5.70
2022-10-24T01:41:30.285Z,5.92
2022-10-24T01:44:16.692Z,6.40
2022-10-24T01:46:59.813Z,6.30
2022-10-24T01:49:36.748Z,5.97
2022-10-24T01:52:33.071Z,5.95
2022-10-24T01:55:06.597Z,6.45
2022-10-24T01:57:40.002Z,6.20
2022-10-24T02:00:35.845Z,6.30
2022-10-24T02:03:23.440Z,6.42
2022-10-24T02:06:04.365Z,5.80
2022-10-24T02:08:41.744Z,6.87
2022-10-24T02:11:14.321Z,6.55
2022-10-24T02:13:58.776Z,6.45
2022-10-24T02:16:33.554Z,6.62
2022-10-24T02:19:06.683Z,6.85
2022-10-24T02:21:56.382Z,6.67
2022-10-24T02:24:40.325Z,6.15
2022-10-24T02:27:23.901Z,6.35
2022-10-24T02:30:15.145Z,7.15
2022-10-24T02:32:55.209Z,6.40
2022-10-24T02:35:53.655Z,6.95
2022-10-24T02:38:39.653Z,6.92
2022-10-24T02:41:16.399Z,6.35
2022-10-24T02:43:50.615Z,7.00
2022-10-24T02:46:24.530Z,7.25
2022-10-24T02:49:00.263Z,7.28
2022-10-24T02:51:36.598Z,7.42
2022-10-24T02:54:11.305Z,7.47
2022-10-24T02:56:49.145Z,6.80
2022-10-24T02:59:21.776Z,6.45
2022-10-24T03:01:56.181Z,8.05
2022-10-24T03:04:30.920Z,6.87
2022-10-24T03:07:03.869Z,7.42
2022-10-24T03:09:37.575Z,7.62
2022-10-24T03:12:11.122Z,6.85
2022-10-24T03:14:45.621Z,7.50
2022-10-24T03:17:18.343Z,7.33
2022-10-24T03:19:51.665Z,7.65
2022-10-24T03:22:29.913Z,8.48
2022-10-24T03:25:01.962Z,7.50
2022-10-24T03:27:36.103Z,7.50
2022-10-24T03:30:10.307Z,7.53
2022-10-24T03:32:43.198Z,8.03
2022-10-24T03:35:17.970Z,7.97
2022-10-24T03:37:50.521Z,7.75
2022-10-24T03:40:23.863Z,8.70
2022-10-24T03:42:57.790Z,8.90
2022-10-24T03:45:30.431Z,9.18
2022-10-24T03:48:03.850Z,7.90
2022-10-24T03:50:37.704Z,7.58
2022-10-24T03:53:11.988Z,7.53
2022-10-24T03:55:46.380Z,8.25
2022-10-24T03:58:19.101Z,8.45
2022-10-24T04:00:53.440Z,8.15
2022-10-24T04:03:27.949Z,8.63
2022-10-24T04:06:01.118Z,8.40
2022-10-24T04:08:33.698Z,9.13
2022-10-24T04:11:08.015Z,8.70
2022-10-24T04:13:41.071Z,8.87
2022-10-24T04:16:14.152Z,8.98
2022-10-24T04:18:47.286Z,8.33
2022-10-24T04:21:22.153Z,8.78
2022-10-24T04:23:55.466Z,9.68
2022-10-24T04:26:28.460Z,9.70
2022-10-24T04:29:01.394Z,8.60
2022-10-24T04:31:35.625Z,10.70
2022-10-24T04:34:08.257Z,8.93
2022-10-24T04:36:42.406Z,8.88
2022-10-24T04:39:15.020Z,9.33
2022-10-24T04:41:48.112Z,8.80
2022-10-24T04:44:20.839Z,8.75
2022-10-24T04:46:53.646Z,8.98
2022-10-24T04:49:26.428Z,9.33
2022-10-24T04:51:59.283Z,9.30
2022-10-24T04:54:31.890Z,10.30
2022-10-24T04:57:05.741Z,9.18
2022-10-24T04:59:38.980Z,8.88
2022-10-24T05:02:11.506Z,9.55
2022-10-24T05:04:45.150Z,8.83
2022-10-24T05:07:20.870Z,9.30
2022-10-24T05:09:53.806Z,9.00
2022-10-24T05:12:26.487Z,9.90
2022-10-24T05:15:00.337Z,9.03
2022-10-24T05:17:33.229Z,9.90
2022-10-24T05:20:07.991Z,9.50
2022-10-24T05:22:41.397Z,9.23
2022-10-24T05:25:14.293Z,9.63
2022-10-24T05:27:47.100Z,9.20
2022-10-24T05:30:20.286Z,9.35
2022-10-24T05:32:54.443Z,9.10
2022-10-24T05:35:28.066Z,10.43
2022-10-24T05:38:01.814Z,10.35
2022-10-24T05:40:35.958Z,8.88
2022-10-24T05:43:08.735Z,9.38
2022-10-24T05:45:41.516Z,10.60
2022-10-24T05:48:14.331Z,8.88
2022-10-24T05:50:47.248Z,9.00
2022-10-24T05:53:20.004Z,9.48
2022-10-24T05:55:52.790Z,9.28
2022-10-24T05:58:25.529Z,10.13
2022-10-24T06:00:58.332Z,11.30
2022-10-24T06:03:31.288Z,10.55
2022-10-24T06:06:11.575Z,9.05
2022-10-24T06:08:45.088Z,10.00
2022-10-24T06:11:19.682Z,9.95
2022-10-24T06:13:53.092Z,9.48
2022-10-24T06:16:27.545Z,9.10
2022-10-24T06:19:01.123Z,8.75
2022-10-24T06:21:34.185Z,9.45
2022-10-24T06:24:07.348Z,9.13
2022-10-24T06:26:41.853Z,9.58
2022-10-24T06:29:14.552Z,10.28
2022-10-24T06:31:47.872Z,10.60
2022-10-24T06:36:54.321Z,10.63
2022-10-24T06:39:27.276Z,10.20
2022-10-24T06:42:03.145Z,9.98
2022-10-24T06:44:37.059Z,10.03
2022-10-24T06:47:09.922Z,9.65
2022-10-24T06:49:43.548Z,9.73
2022-10-24T06:52:16.439Z,10.00
2022-10-24T06:54:49.770Z,10.35
2022-10-24T06:57:22.810Z,13.38
2022-10-24T06:59:55.799Z,10.58
2022-10-24T07:02:29.294Z,11.68
2022-10-24T07:05:05.763Z,12.58
2022-10-24T07:07:42.089Z,11.78
2022-10-24T07:10:15.829Z,10.82
2022-10-24T07:12:52.049Z,10.10
2022-10-24T07:15:26.365Z,11.00
2022-10-24T07:18:02.419Z,11.18
2022-10-24T07:23:16.260Z,11.03
2022-10-24T07:25:50.718Z,10.75
2022-10-24T07:28:26.378Z,10.58
2022-10-24T07:30:59.849Z,12.18
2022-10-24T07:33:33.894Z,11.88
2022-10-24T07:36:08.411Z,12.18
2022-10-24T07:38:41.305Z,11.83
2022-10-24T07:41:14.929Z,12.47
2022-10-24T07:43:48.275Z,11.48
2022-10-24T07:46:26.400Z,11.18
2022-10-24T07:52:02.617Z,11.38
2022-10-24T07:54:40.025Z,12.03
2022-10-24T07:57:13.099Z,11.53
2022-10-24T07:59:45.893Z,11.03
2022-10-24T08:02:21.552Z,11.93
2022-10-24T08:04:54.374Z,12.23
2022-10-24T08:07:27.671Z,12.78
2022-10-24T08:10:00.299Z,15.95
2022-10-24T08:12:33.289Z,14.07
2022-10-24T08:17:41.318Z,14.18
2022-10-24T08:20:14.485Z,16.05
2022-10-24T08:22:48.918Z,15.23
2022-10-24T08:25:22.460Z,15.85
2022-10-24T08:27:55.504Z,15.43
2022-10-24T08:30:29.716Z,14.53
2022-10-24T08:33:02.778Z,15.07
2022-10-24T08:35:36.613Z,16.27
2022-10-24T08:38:10.013Z,14.05
2022-10-24T08:40:43.256Z,14.20
2022-10-24T08:43:17.820Z,14.20
2022-10-24T08:46:22.375Z,14.65
2022-10-24T08:49:14.804Z,13.95
2022-10-24T08:52:04.670Z,14.58
2022-10-24T08:54:40.228Z,13.48
2022-10-24T08:57:26.171Z,12.25
2022-10-24T09:00:07.208Z,12.25
2022-10-24T09:02:40.949Z,12.25
2022-10-24T09:05:33.943Z,11.83
2022-10-24T09:08:31.664Z,13.28
2022-10-24T09:11:08.212Z,12.45
2022-10-24T09:13:42.068Z,13.50
2022-10-24T09:16:17.875Z,13.13
2022-10-24T09:18:53.953Z,13.18
2022-10-24T09:21:28.701Z,13.70
2022-10-24T09:24:01.769Z,14.65
2022-10-24T09:26:35.494Z,14.85
2022-10-24T09:29:09.031Z,15.38
2022-10-24T09:31:42.315Z,14.70
2022-10-24T09:34:15.140Z,16.48
2022-10-24T09:36:49.697Z,15.60
2022-10-24T09:39:34.949Z,16.73
2022-10-24T09:42:10.217Z,15.98
2022-10-24T09:50:23.959Z,18.90
2022-10-24T09:52:59.472Z,17.50
2022-10-24T09:55:34.577Z,20.92
2022-10-24T09:58:07.139Z,18.32
2022-10-24T10:00:40.004Z,15.88
2022-10-24T10:03:24.452Z,16.32
2022-10-24T10:06:02.394Z,17.05
2022-10-24T10:08:36.951Z,15.48
2022-10-24T10:11:12.594Z,16.77
2022-10-24T10:13:53.774Z,16.65
2022-10-24T10:16:33.521Z,17.37
2022-10-24T10:19:20.108Z,17.52
2022-10-24T10:22:07.159Z,18.00
2022-10-24T10:24:46.691Z,17.85
2022-10-24T10:27:40.295Z,18.40
2022-10-24T10:30:20.525Z,18.30
2022-10-24T10:33:21.738Z,17.27
2022-10-24T10:36:25.350Z,16.73
2022-10-24T10:39:25.636Z,14.78
2022-10-24T10:42:06.394Z,12.07
2022-10-24T10:44:55.736Z,11.80
2022-10-24T10:47:52.126Z,11.53
2022-10-24T10:51:07.299Z,10.48
2022-10-24T10:53:53.218Z,10.28
2022-10-24T10:56:36.185Z,9.88
2022-10-24T10:59:25.791Z,10.10
2022-10-24T11:02:21.901Z,10.08
2022-10-24T11:05:33.673Z,9.40
2022-10-24T11:08:43.392Z,11.00
2022-10-24T11:11:23.399Z,10.05
2022-10-24T11:14:16.302Z,9.98
2022-10-24T11:16:51.330Z,8.68
2022-10-24T11:41:53.951Z,12.68
2022-10-24T11:44:48.944Z,12.60
2022-10-24T11:47:44.560Z,12.75
2022-10-24T11:50:56.428Z,13.55
2022-10-24T11:53:41.332Z,12.60
2022-10-24T11:59:06.518Z,12.50
2022-10-24T12:02:16.520Z,12.45
2022-10-24T12:05:29.549Z,11.97
2022-10-24T12:08:16.114Z,10.93
2022-10-24T12:11:00.950Z,11.50
2022-10-24T12:13:47.439Z,11.12
2022-10-24T12:16:47.716Z,9.80
2022-10-24T12:19:21.242Z,9.48
2022-10-24T12:22:00.230Z,9.23
2022-10-24T12:24:36.530Z,9.43
2022-10-24T12:27:24.643Z,10.03
2022-10-24T12:30:21.942Z,9.23
2022-10-24T12:33:10.614Z,10.58
2022-10-24T12:35:48.695Z,9.65
2022-10-24T12:38:32.218Z,9.25
2022-10-24T12:41:08.206Z,9.03
2022-10-24T12:43:47.619Z,9.78
2022-10-24T12:46:24.999Z,8.58
2022-10-24T12:49:08.144Z,9.05
2022-10-24T12:51:41.950Z,9.00
2022-10-24T12:54:19.628Z,9.18
2022-10-24T12:56:58.705Z,8.80
2022-10-24T12:59:37.449Z,8.90
2022-10-24T13:02:18.273Z,9.20
2022-10-24T13:05:10.939Z,10.93
2022-10-24T13:08:06.975Z,9.88
2022-10-24T13:11:08.287Z,8.80
2022-10-24T13:14:00.553Z,9.58
2022-10-24T13:16:40.822Z,9.90
2022-10-24T13:19:22.242Z,11.20
2022-10-24T13:21:59.042Z,11.50
2022-10-24T13:24:40.147Z,10.63
2022-10-24T13:27:20.177Z,9.80
2022-10-24T13:30:01.700Z,9.90
2022-10-24T13:32:57.703Z,9.95
2022-10-24T13:35:32.267Z,9.48
2022-10-24T13:38:07.714Z,9.10
2022-10-24T13:40:39.501Z,9.15
2022-10-24T13:43:22.768Z,8.88
2022-10-24T13:46:02.542Z,13.85
2022-10-24T13:48:36.181Z,10.85
2022-10-24T13:51:19.196Z,10.50
2022-10-24T13:54:19.229Z,10.20
2022-10-24T13:56:51.792Z,10.68
2022-10-24T13:59:39.183Z,11.40
2022-10-24T14:02:26.155Z,11.83
2022-10-24T14:05:01.457Z,12.03
2022-10-24T14:07:36.838Z,12.00
2022-10-24T14:10:14.964Z,11.78
2022-10-24T14:12:49.888Z,11.80
2022-10-24T14:15:29.310Z,13.48
2022-10-24T14:18:09.105Z,12.60
2022-10-24T14:20:43.719Z,13.35
2022-10-24T14:23:35.545Z,12.25
2022-10-24T14:26:20.903Z,12.63
2022-10-24T14:29:01.172Z,13.65
2022-10-24T14:31:35.778Z,13.65
2022-10-24T14:34:11.043Z,13.43
2022-10-24T14:36:43.998Z,12.82
2022-10-24T14:39:23.956Z,13.48
2022-10-24T14:41:58.750Z,14.07
2022-10-24T14:47:07.532Z,12.95
2022-10-24T14:49:40.178Z,13.10
2022-10-24T14:52:18.388Z,13.38
2022-10-24T14:55:04.603Z,13.38
2022-10-24T14:57:37.182Z,13.45
2022-10-24T15:00:31.316Z,13.68
2022-10-24T15:03:07.575Z,14.40
2022-10-24T15:05:41.951Z,13.83
2022-10-24T15:08:22.613Z,14.20
2022-10-24T15:11:16.499Z,14.33
2022-10-24T15:14:06.833Z,14.60
2022-10-24T15:16:41.077Z,15.28
2022-10-24T15:19:18.836Z,15.95
2022-10-24T15:21:51.755Z,17.10
2022-10-24T15:24:26.772Z,17.02
2022-10-24T15:29:46.273Z,16.70
2022-10-24T15:32:19.941Z,16.60
2022-10-24T15:34:57.151Z,17.83
2022-10-24T15:37:30.268Z,17.27
2022-10-24T15:40:15.586Z,18.25
2022-10-24T15:42:49.566Z,17.90
2022-10-24T15:45:24.092Z,18.57
2022-10-24T15:47:57.240Z,20.20
2022-10-24T15:50:29.819Z,18.25
2022-10-24T15:53:04.803Z,19.70
2022-10-24T15:55:37.467Z,19.87
2022-10-24T15:58:15.575Z,18.10
2022-10-24T16:00:48.463Z,18.57
2022-10-24T16:03:24.580Z,20.13
2022-10-24T16:05:59.039Z,18.23
2022-10-24T16:08:31.881Z,19.92
2022-10-24T16:13:42.603Z,19.82
2022-10-24T16:16:15.438Z,19.45
2022-10-24T16:18:48.952Z,17.23
2022-10-24T16:21:22.513Z,20.10
2022-10-24T16:23:56.357Z,18.02
2022-10-24T16:26:29.211Z,17.82
2022-10-24T16:29:02.602Z,18.00
2022-10-24T16:31:36.006Z,18.57
2022-10-24T16:34:09.263Z,19.65
2022-10-24T16:36:42.908Z,19.05
2022-10-24T16:39:16.578Z,18.42
2022-10-24T16:41:50.484Z,18.87
2022-10-24T16:44:22.846Z,19.00
2022-10-24T16:46:55.423Z,18.98
2022-10-24T16:52:15.176Z,19.27
2022-10-24T16:54:47.663Z,18.62
2022-10-24T16:57:20.775Z,19.52
2022-10-24T16:59:53.325Z,19.55
2022-10-24T17:02:26.944Z,20.57
2022-10-24T17:04:59.378Z,20.35
2022-10-24T17:07:33.222Z,18.97
2022-10-24T17:10:07.438Z,19.57
2022-10-24T17:12:45.263Z,20.27
2022-10-24T17:15:22.123Z,21.30
2022-10-24T17:17:53.853Z,20.17
2022-10-24T17:20:26.865Z,22.37
2022-10-24T17:23:02.980Z,20.75
2022-10-24T17:25:37.349Z,20.37
2022-10-24T17:28:11.330Z,21.10
2022-10-24T17:30:46.884Z,21.12
2022-10-24T17:33:19.673Z,20.08
2022-10-24T17:35:57.227Z,22.93
2022-10-24T17:38:40.505Z,22.25
2022-10-24T17:41:26.402Z,23.80
2022-10-24T17:44:06.847Z,22.75
2022-10-24T17:46:40.857Z,24.43
2022-10-24T17:49:19.259Z,25.43
2022-10-24T17:51:52.440Z,25.15
2022-10-24T17:54:25.202Z,25.12
2022-10-24T17:56:57.619Z,25.90
2022-10-24T17:59:32.843Z,26.52
2022-10-24T18:02:05.632Z,25.02
2022-10-24T18:04:43.068Z,25.25
2022-10-24T18:07:15.936Z,24.10
2022-10-24T18:09:49.294Z,25.30
2022-10-24T18:12:22.534Z,24.20
2022-10-24T18:14:57.241Z,23.67
2022-10-24T18:17:31.636Z,24.57
2022-10-24T18:20:17.803Z,25.02
2022-10-24T18:22:51.891Z,24.67
2022-10-24T18:25:25.186Z,23.98
2022-10-24T18:27:57.750Z,21.90
2022-10-24T18:30:30.268Z,23.62
2022-10-24T18:33:03.925Z,22.37
2022-10-24T18:35:37.781Z,22.45
2022-10-24T18:38:10.338Z,23.10
2022-10-24T18:40:43.617Z,23.45
2022-10-24T18:43:17.744Z,23.42
2022-10-24T18:45:52.639Z,23.38
2022-10-24T18:48:27.456Z,24.37
2022-10-24T18:51:00.106Z,24.07
2022-10-24T18:53:34.689Z,21.95
2022-10-24T18:56:09.080Z,22.37
2022-10-24T18:58:42.478Z,22.35
2022-10-24T19:01:33.749Z,21.55
2022-10-24T19:04:20.030Z,23.15
2022-10-24T19:06:58.248Z,22.55
2022-10-24T19:09:31.027Z,22.87
2022-10-24T19:12:04.561Z,24.00
2022-10-24T19:14:37.390Z,23.57
2022-10-24T19:17:12.714Z,23.35
2022-10-24T19:19:45.933Z,25.43
2022-10-24T19:22:19.236Z,24.00
2022-10-24T19:24:52.627Z,25.05
2022-10-24T19:27:27.026Z,24.32
2022-10-24T19:32:31.992Z,22.73
2022-10-24T19:35:04.806Z,22.42
2022-10-24T19:37:37.922Z,22.98
2022-10-24T19:40:11.454Z,23.38
2022-10-24T19:45:21.506Z,21.65
2022-10-24T19:47:56.254Z,23.52
2022-10-24T19:50:29.603Z,22.32
2022-10-24T19:53:02.339Z,23.50
2022-10-24T19:55:39.491Z,22.05
2022-10-24T19:58:18.394Z,23.57
2022-10-24T20:00:52.025Z,23.10
2022-10-24T20:03:24.481Z,22.70
2022-10-24T20:06:01.301Z,23.73
2022-10-24T20:08:34.039Z,23.75
2022-10-24T20:11:07.237Z,23.75
2022-10-24T20:13:40.317Z,24.10
2022-10-24T20:16:13.577Z,23.40
2022-10-24T20:21:20.878Z,25.65
2022-10-24T20:23:53.443Z,31.42
2022-10-24T20:26:27.181Z,27.02
2022-10-24T20:29:00.531Z,27.40
2022-10-24T20:31:36.200Z,24.02
2022-10-24T20:34:13.810Z,23.47
2022-10-24T20:36:48.142Z,23.60
2022-10-24T20:39:21.803Z,22.65
2022-10-24T20:41:54.582Z,24.63
2022-10-24T20:44:31.705Z,23.22
2022-10-24T20:47:04.113Z,24.40
2022-10-24T20:49:36.511Z,25.55
2022-10-24T20:52:09.245Z,23.85
2022-10-24T20:54:41.718Z,25.02
2022-10-24T20:57:14.209Z,26.23
2022-10-24T20:59:47.243Z,25.50
2022-10-24T21:02:20.354Z,24.95
2022-10-24T21:04:54.512Z,25.48
2022-10-24T21:07:26.982Z,26.30
2022-10-24T21:09:59.366Z,24.92
2022-10-24T21:12:33.853Z,24.87
2022-10-24T21:15:07.221Z,27.05
2022-10-24T21:17:39.785Z,25.20
2022-10-24T21:20:12.500Z,23.92
2022-10-24T21:22:45.660Z,26.95
2022-10-24T21:25:18.639Z,24.87
2022-10-24T21:27:51.160Z,24.55
2022-10-24T21:30:24.142Z,24.35
2022-10-24T21:32:57.720Z,24.53
2022-10-24T21:35:30.105Z,25.95
2022-10-24T21:38:03.236Z,25.52
2022-10-24T21:40:35.992Z,26.05
2022-10-24T21:43:08.871Z,25.57
2022-10-24T21:45:41.927Z,26.42
2022-10-24T21:48:15.961Z,26.85
2022-10-24T21:50:51.094Z,26.17
2022-10-24T21:53:24.992Z,26.02
2022-10-24T21:56:07.443Z,24.57
2022-10-24T21:58:41.551Z,26.02
2022-10-24T22:01:16.285Z,27.02
2022-10-24T22:03:49.505Z,29.25
2022-10-24T22:06:22.593Z,27.62
2022-10-24T22:08:55.953Z,25.97
2022-10-24T22:11:30.683Z,27.48
2022-10-24T22:14:04.735Z,26.40
2022-10-24T22:16:38.379Z,26.30
2022-10-24T22:19:12.065Z,27.05
2022-10-24T22:21:48.352Z,27.62
2022-10-24T22:24:23.060Z,28.17
2022-10-24T22:26:56.329Z,27.42
2022-10-24T22:29:29.725Z,27.32
2022-10-24T22:32:02.660Z,27.80
2022-10-24T22:34:35.398Z,28.42
2022-10-24T22:37:33.924Z,27.07
2022-10-24T22:40:18.669Z,26.82
2022-10-24T22:42:52.138Z,28.00
2022-10-24T22:45:25.194Z,29.63
2022-10-24T22:48:20.740Z,29.02
2022-10-24T22:50:57.337Z,29.15
2022-10-24T22:53:32.143Z,29.00
2022-10-24T22:56:12.167Z,27.37
2022-10-24T22:58:46.748Z,28.65
2022-10-24T23:01:49.577Z,26.93
2022-10-24T23:04:58.583Z,28.50
2022-10-24T23:08:03.400Z,27.75
2022-10-24T23:10:38.323Z,29.60
2022-10-24T23:13:11.508Z,29.87
2022-10-24T23:15:44.970Z,29.10
2022-10-24T23:18:18.186Z,28.70
2022-10-24T23:20:58.324Z,29.15
2022-10-24T23:23:30.869Z,28.80
2022-10-24T23:26:23.952Z,29.52
2022-10-24T23:29:07.099Z,29.85
2022-10-24T23:31:40.511Z,31.60
2022-10-24T23:34:13.318Z,29.35
2022-10-24T23:36:46.078Z,30.10
2022-10-24T23:41:52.090Z,28.80
2022-10-24T23:44:26.003Z,30.12
2022-10-24T23:47:18.095Z,31.15
2022-10-24T23:49:58.241Z,30.10
2022-10-24T23:52:56.246Z,30.57
2022-10-24T23:55:29.102Z,31.65
2022-10-24T23:58:02.016Z,30.05
